Time;durP1;ratioP1;P1;durP2;ratioP2;P2;SDS_P1;SDS_P2;PMS_P1;PMS_P2;Temp;Humidity;BMP_temperature;BMP_pressure;BME280_temperature;BME280_humidity;BME280_pressure;Samples;Min_cycle;Max_cycle;Signal;HPM_P1;HPM_P2
2024/04/08 00:01:44;;;;;;;10.27;3.00;;;20.00;90.50;;;;;;5043834;28;20182;-69
2024/04/08 00:04:10;;;;;;;7.87;2.70;;;20.00;90.60;;;;;;5009229;28;20437;-69
2024/04/08 00:06:36;;;;;;;6.83;2.70;;;20.10;90.80;;;;;;4995884;28;20507;-70
2024/04/08 00:09:02;;;;;;;6.53;2.60;;;20.00;90.80;;;;;;5038033;28;20536;-71
2024/04/08 00:11:27;;;;;;;5.53;2.80;;;19.80;91.10;;;;;;5014930;28;20190;-69
2024/04/08 00:13:53;;;;;;;8.00;3.07;;;19.70;91.50;;;;;;5024995;28;20460;-69
2024/04/08 00:16:18;;;;;;;10.73;2.50;;;19.60;91.80;;;;;;5025419;28;20328;-69
2024/04/08 00:18:44;;;;;;;7.20;2.57;;;19.70;91.60;;;;;;5038373;28;20211;-69
2024/04/08 00:21:09;;;;;;;7.17;3.00;;;19.50;91.70;;;;;;4989345;28;20190;-71
2024/04/08 00:23:35;;;;;;;8.10;2.60;;;19.50;92.00;;;;;;5008656;28;20218;-70
2024/04/08 00:26:02;;;;;;;5.53;2.67;;;19.40;92.40;;;;;;5025497;28;20186;-70
2024/04/08 00:28:28;;;;;;;6.73;3.00;;;19.40;92.00;;;;;;5041201;28;20179;-72
2024/04/08 00:31:02;;;;;;;9.63;3.17;;;19.40;92.40;;;;;;5036589;28;20427;-69
2024/04/08 00:33:27;;;;;;;12.50;2.83;;;19.30;93.20;;;;;;5008832;28;20644;-70
2024/04/08 00:35:53;;;;;;;9.00;2.83;;;19.00;93.20;;;;;;5007223;28;20598;-68
2024/04/08 00:38:19;;;;;;;8.47;3.00;;;18.90;92.90;;;;;;5042117;28;20264;-72
2024/04/08 00:40:44;;;;;;;6.13;3.23;;;18.90;92.70;;;;;;5038041;28;20185;-70
2024/04/08 00:43:10;;;;;;;7.37;3.30;;;18.90;92.50;;;;;;5024824;28;20203;-69
2024/04/08 00:45:36;;;;;;;8.17;2.87;;;18.90;92.70;;;;;;5042818;28;20590;-71
2024/04/08 00:48:04;;;;;;;13.97;2.67;;;18.90;92.80;;;;;;5025258;28;20190;-69
2024/04/08 00:50:30;;;;;;;5.30;2.70;;;19.10;92.90;;;;;;4972426;28;20421;-69
2024/04/08 00:52:56;;;;;;;7.67;3.27;;;19.10;92.10;;;;;;4972386;28;20526;-69
2024/04/08 00:55:23;;;;;;;8.20;2.73;;;19.20;93.10;;;;;;5017342;28;20577;-70
2024/04/08 00:57:50;;;;;;;8.30;3.20;;;19.20;93.40;;;;;;5009311;28;20420;-70
2024/04/08 01:00:16;;;;;;;9.37;2.97;;;19.00;93.70;;;;;;5012372;28;20683;-67
2024/04/08 01:02:42;;;;;;;7.97;3.27;;;18.80;93.70;;;;;;5020439;28;20444;-71
2024/04/08 01:05:13;;;;;;;7.77;2.37;;;18.70;93.50;;;;;;4998844;28;20193;-70
2024/04/08 01:07:41;;;;;;;10.60;3.93;;;18.60;93.50;;;;;;4994525;28;20771;-69
2024/04/08 01:10:07;;;;;;;8.73;3.20;;;18.70;94.00;;;;;;4992390;28;20414;-70
2024/04/08 01:12:32;;;;;;;9.30;3.20;;;18.80;93.80;;;;;;5014554;28;20962;-69
2024/04/08 01:14:58;;;;;;;8.03;2.60;;;18.80;94.20;;;;;;5017372;28;20410;-71
2024/04/08 01:17:24;;;;;;;9.93;2.90;;;19.00;93.60;;;;;;4992791;28;20183;-71
2024/04/08 01:19:49;;;;;;;11.13;2.83;;;19.20;93.90;;;;;;5020816;28;20872;-69
2024/04/08 01:22:15;;;;;;;6.77;2.87;;;19.20;93.70;;;;;;5011778;28;20680;-69
2024/04/08 01:24:40;;;;;;;9.80;3.07;;;19.10;93.90;;;;;;5034390;28;20277;-70
2024/04/08 01:27:06;;;;;;;7.90;2.90;;;19.10;94.00;;;;;;5008504;28;20187;-72
2024/04/08 01:29:32;;;;;;;4.50;2.47;;;19.10;93.80;;;;;;5018401;28;20178;-70
2024/04/08 01:31:57;;;;;;;11.17;3.90;;;19.10;93.90;;;;;;5011510;28;20249;-70
2024/04/08 01:34:23;;;;;;;8.87;2.43;;;19.00;94.20;;;;;;4997529;28;20682;-70
2024/04/08 01:36:51;;;;;;;7.23;2.77;;;18.90;94.00;;;;;;5008132;28;20230;-71
2024/04/08 01:39:17;;;;;;;8.70;3.17;;;19.00;93.90;;;;;;5008439;28;20630;-67
2024/04/08 01:41:43;;;;;;;7.67;3.00;;;19.10;93.50;;;;;;5008052;28;20424;-71
2024/04/08 01:44:08;;;;;;;6.27;2.60;;;19.10;93.60;;;;;;5026299;28;20276;-73
2024/04/08 01:46:34;;;;;;;6.70;2.77;;;19.10;93.50;;;;;;5025982;28;20187;-70
2024/04/08 01:48:59;;;;;;;7.90;3.20;;;19.20;93.20;;;;;;5036050;28;20183;-70
2024/04/08 01:51:25;;;;;;;7.07;2.93;;;19.40;93.50;;;;;;4991944;28;20186;-69
2024/04/08 01:53:51;;;;;;;7.80;3.00;;;19.40;92.90;;;;;;4992092;28;20584;-69
2024/04/08 01:57:52;;;;;;;7.80;2.33;;;19.50;93.00;;;;;;5494242;25;20945;-69
2024/04/08 02:00:18;;;;;;;7.40;3.40;;;19.50;93.40;;;;;;5494113;26;20553;-69
2024/04/08 02:02:44;;;;;;;6.13;2.60;;;19.50;93.70;;;;;;5461691;26;20530;-71
2024/04/08 02:05:10;;;;;;;8.77;3.10;;;19.30;93.90;;;;;;5492929;26;20503;-68
2024/04/08 02:07:35;;;;;;;11.67;3.30;;;19.30;93.90;;;;;;5494136;26;20435;-69
2024/04/08 02:10:01;;;;;;;8.30;3.07;;;19.20;93.60;;;;;;5492477;26;20245;-69
2024/04/08 02:12:27;;;;;;;6.17;2.90;;;19.00;94.10;;;;;;5492152;26;20252;-71
2024/04/08 02:14:53;;;;;;;6.40;2.77;;;19.00;94.30;;;;;;5492549;26;20217;-68
2024/04/08 02:17:18;;;;;;;6.83;2.50;;;19.00;94.70;;;;;;5492050;26;20249;-69
2024/04/08 02:19:44;;;;;;;11.87;3.27;;;19.10;94.70;;;;;;5431762;26;20229;-70
2024/04/08 02:22:09;;;;;;;7.43;2.73;;;19.10;94.90;;;;;;5492108;26;20251;-68
2024/04/08 02:24:35;;;;;;;6.90;2.97;;;18.80;94.90;;;;;;5494055;26;20338;-67
2024/04/08 02:27:00;;;;;;;6.23;2.60;;;18.90;95.20;;;;;;5493808;26;20214;-70
2024/04/08 02:29:27;;;;;;;10.53;2.80;;;19.00;95.30;;;;;;5493863;26;20333;-71
2024/04/08 02:31:53;;;;;;;6.90;3.13;;;19.10;95.40;;;;;;5493682;26;20665;-70
2024/04/08 02:34:19;;;;;;;7.80;3.50;;;18.90;95.60;;;;;;5492248;26;21634;-69
2024/04/08 02:36:45;;;;;;;7.33;3.20;;;18.80;96.20;;;;;;5493951;25;20510;-67
2024/04/08 02:39:11;;;;;;;6.43;2.90;;;18.70;96.70;;;;;;5491699;26;21107;-68
2024/04/08 02:41:36;;;;;;;7.10;2.97;;;18.50;97.00;;;;;;5493808;26;20315;-68
2024/04/08 02:44:02;;;;;;;10.67;3.40;;;18.50;97.60;;;;;;5492094;26;20735;-68
2024/04/08 02:46:28;;;;;;;13.37;3.30;;;18.30;97.50;;;;;;5492320;26;20214;-68
2024/04/08 02:48:53;;;;;;;8.13;2.43;;;18.00;97.50;;;;;;5491875;26;20715;-69
2024/04/08 02:51:19;;;;;;;12.10;2.83;;;18.10;98.00;;;;;;5492056;26;20281;-71
2024/04/08 02:53:44;;;;;;;8.23;3.00;;;18.00;97.80;;;;;;5491474;26;20242;-69
2024/04/08 02:56:10;;;;;;;6.27;2.50;;;18.00;98.10;;;;;;5431195;26;20231;-69
2024/04/08 02:58:36;;;;;;;8.57;3.30;;;17.90;98.50;;;;;;5492539;26;20221;-67
2024/04/08 03:01:03;;;;;;;6.67;2.63;;;17.90;98.70;;;;;;5461073;26;20597;-71
2024/04/08 03:03:28;;;;;;;5.90;2.67;;;17.90;98.60;;;;;;5461361;26;20238;-69
2024/04/08 03:05:54;;;;;;;9.00;3.07;;;17.80;99.00;;;;;;5490113;26;20498;-69
2024/04/08 03:08:19;;;;;;;9.23;2.80;;;17.80;99.00;;;;;;5480303;26;20708;-69
2024/04/08 03:10:45;;;;;;;3.70;2.00;;;17.70;99.40;;;;;;5475445;26;20226;-69
2024/04/08 03:13:11;;;;;;;6.20;2.40;;;17.70;99.80;;;;;;5477694;26;20776;-68
2024/04/08 03:15:36;;;;;;;9.53;3.63;;;17.60;99.80;;;;;;5476540;26;20736;-69
2024/04/08 03:18:06;;;;;;;7.10;2.83;;;17.40;99.60;;;;;;5477439;26;20253;-69
2024/04/08 03:20:32;;;;;;;9.33;3.10;;;17.20;99.90;;;;;;5475813;26;20269;-69
2024/04/08 03:22:58;;;;;;;8.50;3.10;;;17.20;99.90;;;;;;5477157;26;20460;-70
2024/04/08 03:25:23;;;;;;;10.50;3.10;;;17.30;99.90;;;;;;5445357;26;20549;-70
2024/04/08 03:27:51;;;;;;;6.70;2.90;;;17.30;99.90;;;;;;5474938;26;20222;-69
2024/04/08 03:30:17;;;;;;;10.27;4.47;;;17.30;99.50;;;;;;5477056;26;20226;-69
2024/04/08 03:32:42;;;;;;;6.20;2.50;;;17.30;99.60;;;;;;5476804;26;20566;-71
2024/04/08 03:35:08;;;;;;;7.87;3.30;;;17.30;99.70;;;;;;5475369;26;20491;-70
2024/04/08 03:37:34;;;;;;;8.60;3.17;;;17.20;99.60;;;;;;5475674;26;20222;-68
2024/04/08 03:39:59;;;;;;;5.83;2.73;;;17.10;99.90;;;;;;5445117;26;20646;-70
2024/04/08 03:42:25;;;;;;;6.17;2.53;;;17.00;99.90;;;;;;5477464;26;20730;-70
2024/04/08 03:44:52;;;;;;;7.17;2.80;;;17.00;99.90;;;;;;5475510;26;20236;-69
2024/04/08 03:47:17;;;;;;;7.50;3.10;;;17.00;99.90;;;;;;5445281;26;20226;-69
2024/04/08 03:49:44;;;;;;;7.80;2.90;;;17.00;99.90;;;;;;5477163;26;20581;-69
2024/04/08 03:52:10;;;;;;;5.27;2.60;;;16.90;99.90;;;;;;5444717;26;21210;-68
2024/04/08 03:54:35;;;;;;;11.37;2.70;;;17.00;99.90;;;;;;5444915;26;20451;-68
2024/04/08 03:57:01;;;;;;;9.90;3.27;;;16.80;99.90;;;;;;5476598;26;20226;-69
2024/04/08 03:59:26;;;;;;;7.27;2.90;;;16.90;99.90;;;;;;5475174;26;20222;-69
2024/04/08 04:01:52;;;;;;;7.30;3.07;;;17.10;99.90;;;;;;5474648;26;20225;-69
2024/04/08 04:04:17;;;;;;;10.53;3.00;;;17.20;99.90;;;;;;5475037;26;20234;-69
2024/04/08 04:06:43;;;;;;;9.23;3.07;;;17.20;99.90;;;;;;5414555;26;20226;-69
2024/04/08 04:09:11;;;;;;;19.23;3.63;;;17.00;99.90;;;;;;5475145;26;20226;-68
2024/04/08 04:11:37;;;;;;;6.03;2.90;;;16.90;99.90;;;;;;5475154;26;20257;-69
2024/04/08 04:14:03;;;;;;;7.03;2.70;;;16.80;99.90;;;;;;5476544;26;20455;-69
2024/04/08 04:16:28;;;;;;;8.40;2.20;;;17.00;99.90;;;;;;5475331;26;20651;-69
2024/04/08 04:18:54;;;;;;;5.30;3.00;;;17.00;99.90;;;;;;5474614;26;20289;-69
2024/04/08 04:21:19;;;;;;;11.60;3.60;;;17.00;99.90;;;;;;5444760;26;20226;-71
2024/04/08 04:23:45;;;;;;;5.87;3.10;;;16.90;99.90;;;;;;5474777;26;20238;-68
2024/04/08 04:26:11;;;;;;;7.27;3.07;;;16.70;99.90;;;;;;5444115;26;20222;-68
2024/04/08 04:28:36;;;;;;;6.50;2.70;;;16.60;99.90;;;;;;5476483;26;20213;-69
2024/04/08 04:31:02;;;;;;;9.07;3.27;;;16.70;99.90;;;;;;5476452;26;20226;-71
2024/04/08 04:33:28;;;;;;;10.87;2.90;;;16.90;99.90;;;;;;5474773;26;20364;-69
2024/04/08 04:36:00;;;;;;;7.13;3.33;;;16.80;99.90;;;;;;5474698;26;20748;-69
2024/04/08 04:38:26;;;;;;;8.30;3.43;;;16.60;99.90;;;;;;5474755;26;20214;-68
2024/04/08 04:40:59;;;;;;;7.23;2.90;;;16.60;99.90;;;;;;5474939;26;20511;-71
2024/04/08 04:43:25;;;;;;;8.07;3.63;;;16.50;99.90;;;;;;5476105;26;20702;-68
2024/04/08 04:45:50;;;;;;;7.33;3.27;;;16.40;99.90;;;;;;5476474;26;20801;-69
2024/04/08 04:48:16;;;;;;;7.50;3.43;;;16.40;99.90;;;;;;5444040;26;20258;-69
2024/04/08 04:50:42;;;;;;;10.30;3.93;;;16.30;99.90;;;;;;5475848;26;20214;-69
2024/04/08 04:53:07;;;;;;;7.83;3.10;;;16.20;99.90;;;;;;5475696;26;20234;-69
2024/04/08 04:55:33;;;;;;;6.13;3.10;;;16.30;99.90;;;;;;5443800;26;20327;-69
2024/04/08 04:57:58;;;;;;;6.70;3.10;;;16.50;99.90;;;;;;5475931;26;20762;-69
2024/04/08 05:00:26;;;;;;;10.90;3.93;;;16.60;99.90;;;;;;5473090;26;20326;-69
2024/04/08 05:02:52;;;;;;;7.10;3.27;;;16.70;99.90;;;;;;5474189;26;20231;-67
2024/04/08 05:05:18;;;;;;;9.83;3.47;;;16.70;99.90;;;;;;5473972;26;20673;-68
2024/04/08 05:07:43;;;;;;;12.87;3.37;;;16.60;99.90;;;;;;5476124;26;20439;-69
2024/04/08 05:10:09;;;;;;;9.70;3.37;;;16.80;99.90;;;;;;5443529;26;20230;-70
2024/04/08 05:12:35;;;;;;;15.03;3.33;;;16.90;99.90;;;;;;5473632;26;20815;-69
2024/04/08 05:15:00;;;;;;;7.50;3.33;;;17.00;99.90;;;;;;5443353;26;20248;-69
2024/04/08 05:17:26;;;;;;;14.30;4.10;;;17.00;99.90;;;;;;5473600;26;20675;-68
2024/04/08 05:19:52;;;;;;;14.67;3.67;;;16.90;99.90;;;;;;5412983;26;20261;-68
2024/04/08 05:22:19;;;;;;;11.10;3.43;;;16.90;99.90;;;;;;5475705;26;20230;-69
2024/04/08 05:24:45;;;;;;;6.47;3.10;;;16.80;99.90;;;;;;5473671;26;20709;-68
2024/04/08 05:27:11;;;;;;;9.97;3.40;;;16.70;99.90;;;;;;5473579;26;20533;-68
2024/04/08 05:29:36;;;;;;;8.60;2.80;;;16.50;99.90;;;;;;5475667;26;20249;-69
2024/04/08 05:32:02;;;;;;;8.33;3.80;;;16.60;99.90;;;;;;5472409;26;20225;-69
2024/04/08 05:34:28;;;;;;;4.03;3.17;;;16.70;99.90;;;;;;5443676;26;20234;-69
2024/04/08 05:36:53;;;;;;;9.93;3.90;;;16.60;99.90;;;;;;5443228;26;20262;-70
2024/04/08 05:39:19;;;;;;;7.23;3.37;;;16.80;99.90;;;;;;5413639;26;20229;-69
2024/04/08 05:41:44;;;;;;;8.07;3.00;;;16.80;99.90;;;;;;5413432;26;20245;-69
2024/04/08 05:44:10;;;;;;;9.93;3.20;;;16.80;99.90;;;;;;5443186;26;20280;-69
2024/04/08 05:46:36;;;;;;;6.47;3.43;;;16.70;99.90;;;;;;5475100;26;20342;-68
2024/04/08 05:49:01;;;;;;;5.80;2.93;;;16.80;99.90;;;;;;5472882;26;20218;-69
2024/04/08 05:51:27;;;;;;;7.63;2.87;;;16.90;99.90;;;;;;5413298;26;20217;-69
2024/04/08 05:53:53;;;;;;;8.57;3.60;;;17.10;99.90;;;;;;5472851;26;20588;-70
2024/04/08 05:56:19;;;;;;;12.97;3.60;;;17.20;99.90;;;;;;5472940;26;20835;-69
2024/04/08 05:58:45;;;;;;;11.80;3.77;;;17.50;99.90;;;;;;5472606;26;20891;-70
2024/04/08 06:01:11;;;;;;;9.73;3.30;;;17.60;99.90;;;;;;5442627;26;20502;-68
2024/04/08 06:03:37;;;;;;;9.03;3.53;;;17.50;99.90;;;;;;5472903;26;20463;-69
2024/04/08 06:06:06;;;;;;;6.27;3.20;;;17.60;99.90;;;;;;5472723;26;20486;-69
2024/04/08 06:08:32;;;;;;;8.40;3.47;;;17.70;99.90;;;;;;5472802;26;20218;-70
2024/04/08 06:11:02;;;;;;;6.57;3.20;;;17.60;99.90;;;;;;5474372;26;20447;-69
2024/04/08 06:13:30;;;;;;;15.10;4.10;;;17.70;99.90;;;;;;5439630;26;20584;-69
2024/04/08 06:15:57;;;;;;;9.10;3.20;;;17.70;99.90;;;;;;5472387;26;20499;-69
2024/04/08 06:18:23;;;;;;;8.73;3.63;;;17.80;99.90;;;;;;5474165;26;20586;-69
2024/04/08 06:20:56;;;;;;;9.17;3.03;;;18.00;99.90;;;;;;5472558;26;21002;-70
2024/04/08 06:23:22;;;;;;;7.67;3.00;;;18.00;99.90;;;;;;5473762;26;21032;-69
2024/04/08 06:25:56;;;;;;;7.70;3.03;;;18.10;99.90;;;;;;5472347;26;20561;-69
2024/04/08 06:28:22;;;;;;;7.60;3.53;;;18.30;99.90;;;;;;5441639;26;20553;-69
2024/04/08 06:30:48;;;;;;;7.33;3.53;;;18.40;99.90;;;;;;5438590;26;21018;-70
2024/04/08 06:33:13;;;;;;;11.90;3.80;;;18.50;99.90;;;;;;5439209;26;20576;-68
2024/04/08 06:35:46;;;;;;;9.80;3.67;;;18.60;99.90;;;;;;5438736;26;20508;-69
2024/04/08 06:38:13;;;;;;;9.40;3.60;;;18.60;99.90;;;;;;5469265;26;20315;-70
2024/04/08 06:40:43;;;;;;;9.97;3.33;;;18.70;99.90;;;;;;5468818;26;20550;-69
2024/04/08 06:43:09;;;;;;;8.30;3.40;;;18.80;99.90;;;;;;5473849;26;20536;-68
2024/04/08 06:45:35;;;;;;;10.17;3.07;;;18.90;99.90;;;;;;5475764;26;21397;-72
2024/04/08 06:48:01;;;;;;;9.20;4.03;;;19.00;99.90;;;;;;5477524;26;20491;-70
2024/04/08 06:50:28;;;;;;;5.50;3.00;;;19.20;99.90;;;;;;5444704;26;20223;-72
2024/04/08 06:52:53;;;;;;;8.77;3.90;;;19.30;99.90;;;;;;5445189;26;20562;-70
2024/04/08 06:55:19;;;;;;;7.57;3.33;;;19.40;99.90;;;;;;5445472;26;20455;-69
2024/04/08 06:57:45;;;;;;;7.60;2.73;;;19.50;99.90;;;;;;5477722;26;20237;-69
2024/04/08 07:00:12;;;;;;;6.13;3.17;;;19.60;99.90;;;;;;5444824;26;20226;-71
2024/04/08 07:02:37;;;;;;;11.53;3.33;;;19.70;99.90;;;;;;5476248;26;20443;-69
2024/04/08 07:05:06;;;;;;;5.27;3.13;;;19.80;99.90;;;;;;5421098;26;20491;-69
2024/04/08 07:07:32;;;;;;;8.17;3.87;;;19.90;99.90;;;;;;5484722;26;20688;-71
2024/04/08 07:09:58;;;;;;;10.33;3.10;;;20.00;99.90;;;;;;5447804;26;20578;-70
2024/04/08 07:12:23;;;;;;;7.60;3.53;;;20.10;99.90;;;;;;5452289;26;20655;-71
2024/04/08 07:14:52;;;;;;;5.73;2.97;;;20.20;99.90;;;;;;5449174;26;20234;-70
2024/04/08 07:17:19;;;;;;;6.73;4.00;;;20.40;99.90;;;;;;5475277;26;20253;-71
2024/04/08 07:19:45;;;;;;;6.77;3.27;;;20.50;99.60;;;;;;5477597;26;20550;-69
2024/04/08 07:22:11;;;;;;;10.00;3.50;;;20.50;99.70;;;;;;5444947;26;20646;-69
2024/04/08 07:24:37;;;;;;;9.77;3.90;;;20.60;99.10;;;;;;5475386;26;20515;-69
2024/04/08 07:27:05;;;;;;;5.57;2.90;;;20.70;99.10;;;;;;5475483;26;20435;-71
2024/04/08 07:29:31;;;;;;;8.17;3.40;;;20.80;99.10;;;;;;5475396;26;20947;-72
2024/04/08 07:31:57;;;;;;;8.57;3.80;;;20.90;98.80;;;;;;5445588;26;20527;-70
2024/04/08 07:34:23;;;;;;;14.27;3.70;;;21.10;98.60;;;;;;5474877;26;20903;-69
2024/04/08 07:36:48;;;;;;;8.90;4.07;;;21.10;96.50;;;;;;5475210;26;20790;-70
2024/04/08 07:39:14;;;;;;;6.20;3.20;;;21.10;96.60;;;;;;5476843;26;20218;-71
2024/04/08 07:41:40;;;;;;;10.17;3.40;;;21.30;96.50;;;;;;5415329;26;20314;-71
2024/04/08 07:44:05;;;;;;;6.67;3.40;;;21.30;94.80;;;;;;5444787;26;20334;-70
2024/04/08 07:46:31;;;;;;;6.87;2.80;;;21.40;94.60;;;;;;5444726;26;20222;-70
2024/04/08 07:48:56;;;;;;;7.93;3.50;;;21.60;95.90;;;;;;5475206;26;20296;-70
2024/04/08 07:51:22;;;;;;;9.17;3.70;;;21.80;95.60;;;;;;5444791;26;20265;-72
2024/04/08 07:53:48;;;;;;;9.97;3.67;;;21.90;95.20;;;;;;5444151;26;20605;-70
2024/04/08 07:56:13;;;;;;;7.90;3.20;;;22.00;95.70;;;;;;5475223;26;20972;-69
2024/04/08 07:58:39;;;;;;;13.63;3.80;;;22.10;95.30;;;;;;5444741;26;20218;-69
2024/04/08 08:01:04;;;;;;;10.43;4.10;;;22.20;93.40;;;;;;5444722;26;20222;-71
2024/04/08 08:03:30;;;;;;;9.57;3.30;;;22.30;92.60;;;;;;5477304;26;20237;-70
2024/04/08 08:05:56;;;;;;;5.20;3.10;;;22.10;92.00;;;;;;5475815;26;20585;-70
2024/04/08 08:08:24;;;;;;;14.63;3.77;;;21.70;92.10;;;;;;5482580;26;20210;-71
2024/04/08 08:10:51;;;;;;;11.80;3.57;;;21.50;93.50;;;;;;5477774;26;20455;-70
2024/04/08 08:13:16;;;;;;;11.80;3.73;;;21.60;94.10;;;;;;5476000;26;20475;-71
2024/04/08 08:15:53;;;;;;;7.30;3.27;;;21.70;93.50;;;;;;5445927;26;21082;-71
2024/04/08 08:18:18;;;;;;;10.10;4.10;;;21.80;93.40;;;;;;5447410;26;20253;-70
2024/04/08 08:20:44;;;;;;;15.00;4.87;;;21.70;93.80;;;;;;5474444;26;21050;-70
2024/04/08 08:23:10;;;;;;;8.90;4.30;;;21.80;93.50;;;;;;5414431;26;20226;-71
2024/04/08 08:25:35;;;;;;;13.40;7.57;;;22.00;92.90;;;;;;5475064;26;20218;-70
2024/04/08 08:28:01;;;;;;;8.73;4.90;;;22.10;92.00;;;;;;5474686;26;20214;-70
2024/04/08 08:30:26;;;;;;;15.00;6.77;;;22.10;92.30;;;;;;5444609;26;20589;-71
2024/04/08 08:32:54;;;;;;;12.17;6.00;;;22.40;92.60;;;;;;5444380;26;20226;-69
2024/04/08 08:35:20;;;;;;;10.27;5.23;;;22.60;91.30;;;;;;5444626;26;20306;-69
2024/04/08 08:37:46;;;;;;;13.53;4.57;;;22.90;90.80;;;;;;5444576;26;20451;-70
2024/04/08 08:40:11;;;;;;;8.30;4.10;;;22.90;90.40;;;;;;5443670;26;20762;-70
2024/04/08 08:42:37;;;;;;;15.17;4.40;;;22.60;90.80;;;;;;5414256;26;20210;-69
2024/04/08 08:45:05;;;;;;;7.23;3.80;;;22.60;90.40;;;;;;5444300;26;20680;-70
2024/04/08 08:47:32;;;;;;;11.73;3.90;;;22.80;90.20;;;;;;5474569;26;20218;-68
2024/04/08 08:49:57;;;;;;;6.63;2.77;;;22.70;89.60;;;;;;5444488;26;20467;-68
2024/04/08 08:52:24;;;;;;;10.37;3.57;;;23.00;88.70;;;;;;5438477;26;20519;-70
2024/04/08 08:54:53;;;;;;;7.73;2.90;;;23.20;87.40;;;;;;5444254;26;20322;-72
2024/04/08 08:57:19;;;;;;;11.17;2.53;;;23.50;80.50;;;;;;5473916;26;20530;-71
2024/04/08 08:59:50;;;;;;;7.97;2.70;;;23.60;74.10;;;;;;5414279;26;20464;-70
2024/04/08 09:02:16;;;;;;;8.83;2.67;;;24.00;71.80;;;;;;5474279;26;20451;-69
2024/04/08 09:04:42;;;;;;;8.40;2.47;;;24.20;70.20;;;;;;5473636;26;20503;-70
2024/04/08 09:07:08;;;;;;;8.47;2.40;;;24.30;69.80;;;;;;5472486;26;20912;-69
2024/04/08 09:09:34;;;;;;;6.83;2.67;;;24.40;68.70;;;;;;5473523;26;20258;-72
2024/04/08 09:12:01;;;;;;;8.93;2.80;;;24.70;67.80;;;;;;5475483;26;20500;-72
2024/04/08 09:14:30;;;;;;;10.80;2.77;;;24.90;64.40;;;;;;5413130;26;20585;-70
2024/04/08 09:17:10;;;;;;;6.83;2.60;;;24.80;65.30;;;;;;5415124;26;20451;-69
2024/04/08 09:19:36;;;;;;;7.87;2.80;;;24.80;66.80;;;;;;5473642;26;21661;-70
2024/04/08 09:22:03;;;;;;;7.50;2.83;;;25.00;66.10;;;;;;5473736;26;20447;-70
2024/04/08 09:24:30;;;;;;;4.97;2.30;;;25.10;64.80;;;;;;5443739;26;20464;-70
2024/04/08 09:26:56;;;;;;;7.97;3.17;;;25.20;67.70;;;;;;5474859;26;20589;-70
2024/04/08 09:29:22;;;;;;;5.03;2.63;;;25.30;63.40;;;;;;5443548;26;20439;-70
2024/04/08 09:31:47;;;;;;;10.23;2.67;;;25.40;62.30;;;;;;5443721;26;20645;-70
2024/04/08 09:34:13;;;;;;;9.87;2.93;;;25.40;60.60;;;;;;5442982;26;20792;-73
2024/04/08 09:36:40;;;;;;;5.67;2.37;;;25.40;58.80;;;;;;5443233;26;20661;-70
2024/04/08 09:39:09;;;;;;;7.73;2.30;;;25.40;61.00;;;;;;5473015;26;20314;-70
2024/04/08 09:41:36;;;;;;;7.23;2.10;;;25.30;56.80;;;;;;5443740;26;20511;-70
2024/04/08 09:44:03;;;;;;;11.20;2.20;;;25.50;57.80;;;;;;5413253;26;20601;-68
2024/04/08 09:46:28;;;;;;;10.33;2.60;;;25.70;53.40;;;;;;5412651;26;20479;-70
2024/04/08 09:48:54;;;;;;;4.43;2.10;;;25.60;52.90;;;;;;5474824;26;20498;-72
2024/04/08 09:51:20;;;;;;;11.30;3.03;;;25.80;54.60;;;;;;5413283;26;20230;-70
2024/04/08 09:53:46;;;;;;;5.50;2.37;;;26.10;54.40;;;;;;5472847;26;20230;-69
2024/04/08 09:56:16;;;;;;;6.93;1.93;;;26.10;53.00;;;;;;5473047;26;20535;-70
2024/04/08 09:59:03;;;;;;;6.53;2.33;;;26.30;51.20;;;;;;5473201;26;20740;-70
2024/04/08 10:01:28;;;;;;;9.10;2.57;;;26.40;51.00;;;;;;5473316;26;20624;-70
2024/04/08 10:04:01;;;;;;;8.50;2.30;;;26.60;51.20;;;;;;5442257;26;20475;-72
2024/04/08 10:06:28;;;;;;;8.37;2.03;;;26.70;48.60;;;;;;5442426;26;20222;-70
2024/04/08 10:08:55;;;;;;;5.23;1.80;;;26.70;48.10;;;;;;5473102;26;20889;-73
2024/04/08 10:11:21;;;;;;;5.80;2.20;;;26.60;47.20;;;;;;5472957;26;20973;-72
2024/04/08 10:13:48;;;;;;;5.43;1.90;;;26.60;47.60;;;;;;5472330;26;20520;-72
2024/04/08 10:16:14;;;;;;;4.83;1.90;;;26.70;44.90;;;;;;5474771;26;20519;-69
2024/04/08 10:18:56;;;;;;;9.67;2.10;;;26.80;45.40;;;;;;5423366;26;20761;-70
2024/04/08 10:21:25;;;;;;;5.40;2.10;;;27.00;48.20;;;;;;5476339;26;20455;-71
2024/04/08 10:23:54;;;;;;;9.33;2.30;;;27.30;49.10;;;;;;5476187;26;20514;-70
2024/04/08 10:26:25;;;;;;;9.70;2.27;;;27.40;45.90;;;;;;5445804;26;20800;-70
2024/04/08 10:28:51;;;;;;;7.30;1.70;;;27.70;46.90;;;;;;5476671;26;20798;-71
2024/04/08 10:31:20;;;;;;;12.37;2.77;;;27.90;45.20;;;;;;5445865;26;20510;-69
2024/04/08 10:33:46;;;;;;;5.13;2.60;;;27.90;45.90;;;;;;5475970;26;20223;-72
2024/04/08 10:36:11;;;;;;;9.07;2.27;;;28.10;47.30;;;;;;5446081;26;20455;-71
2024/04/08 10:38:37;;;;;;;6.90;1.87;;;27.70;45.10;;;;;;5477897;26;20499;-70
2024/04/08 10:41:09;;;;;;;4.90;1.93;;;28.00;44.30;;;;;;5446786;26;20294;-71
2024/04/08 10:43:35;;;;;;;10.77;2.50;;;28.30;44.40;;;;;;5477932;26;20724;-71
2024/04/08 10:46:05;;;;;;;15.07;2.30;;;28.30;45.10;;;;;;5477736;26;20483;-71
2024/04/08 10:48:31;;;;;;;8.30;3.47;;;28.40;46.30;;;;;;5446181;26;21206;-70
2024/04/08 10:50:58;;;;;;;9.60;2.53;;;28.90;45.00;;;;;;5476287;26;20512;-70
2024/04/08 10:53:27;;;;;;;9.03;2.40;;;30.00;43.40;;;;;;5476476;26;21009;-71
2024/04/08 10:55:54;;;;;;;8.50;2.60;;;30.90;42.50;;;;;;5446176;26;20505;-72
2024/04/08 10:58:20;;;;;;;8.30;2.50;;;31.20;40.60;;;;;;5476695;26;20541;-73
2024/04/08 11:00:46;;;;;;;5.40;2.30;;;31.80;38.30;;;;;;5446525;26;20509;-71
2024/04/08 11:03:12;;;;;;;9.13;2.20;;;32.60;36.50;;;;;;5476676;26;20455;-71
2024/04/08 11:05:40;;;;;;;11.90;2.27;;;32.30;36.70;;;;;;5446656;26;20218;-70
2024/04/08 11:08:07;;;;;;;9.00;2.63;;;32.80;36.50;;;;;;5446182;26;20808;-70
2024/04/08 11:10:33;;;;;;;10.00;2.90;;;33.40;35.90;;;;;;5446209;26;20696;-70
2024/04/08 11:13:00;;;;;;;8.33;2.50;;;34.20;35.10;;;;;;5444667;26;21024;-71
2024/04/08 11:15:31;;;;;;;10.13;2.83;;;33.40;35.20;;;;;;5476676;26;20567;-71
2024/04/08 11:17:57;;;;;;;8.43;2.60;;;32.90;36.00;;;;;;5476791;26;20451;-71
2024/04/08 11:20:25;;;;;;;10.50;2.70;;;32.30;35.10;;;;;;5476333;26;20451;-71
2024/04/08 11:22:51;;;;;;;8.43;2.53;;;32.40;35.70;;;;;;5477943;26;20274;-71
2024/04/08 11:25:17;;;;;;;11.03;2.57;;;33.00;35.50;;;;;;5416442;26;20439;-71
2024/04/08 11:27:43;;;;;;;12.40;3.00;;;33.60;34.20;;;;;;5445996;26;20226;-71
2024/04/08 11:30:16;;;;;;;8.20;3.47;;;33.60;34.50;;;;;;5474989;26;20568;-69
2024/04/08 11:32:43;;;;;;;4.00;1.90;;;32.80;36.40;;;;;;5445810;26;20853;-71
2024/04/08 11:35:09;;;;;;;7.77;2.60;;;33.50;36.30;;;;;;5431456;26;21106;-71
2024/04/08 11:37:34;;;;;;;7.90;2.80;;;33.70;37.00;;;;;;5445488;26;20451;-70
2024/04/08 11:40:04;;;;;;;6.90;3.00;;;33.70;36.90;;;;;;5444961;26;20214;-69
2024/04/08 11:42:30;;;;;;;6.50;3.07;;;34.20;37.40;;;;;;5475065;26;20218;-70
2024/04/08 11:45:06;;;;;;;7.17;2.57;;;34.00;36.50;;;;;;5475054;26;21025;-71
2024/04/08 11:47:31;;;;;;;8.27;2.40;;;34.00;36.20;;;;;;5476924;26;20222;-69
2024/04/08 11:49:57;;;;;;;8.23;2.93;;;33.80;37.20;;;;;;5475135;26;20463;-72
2024/04/08 11:52:23;;;;;;;10.53;2.70;;;34.20;35.80;;;;;;5444864;26;20286;-69
2024/04/08 11:54:48;;;;;;;8.10;2.47;;;35.00;36.00;;;;;;5476634;26;20274;-70
2024/04/08 11:57:15;;;;;;;6.33;2.23;;;36.10;35.60;;;;;;5474411;26;20234;-71
2024/04/08 11:59:41;;;;;;;5.73;2.20;;;36.80;33.70;;;;;;5474868;26;20253;-71
2024/04/08 12:02:07;;;;;;;9.10;3.10;;;35.80;34.50;;;;;;5475013;26;20440;-71
2024/04/08 12:04:33;;;;;;;16.37;3.73;;;36.30;36.30;;;;;;5474686;26;20246;-70
2024/04/08 12:06:59;;;;;;;7.50;2.50;;;36.30;33.50;;;;;;5475070;26;20495;-69
2024/04/08 12:09:25;;;;;;;13.17;4.00;;;36.70;34.10;;;;;;5476649;26;20653;-71
2024/04/08 12:11:51;;;;;;;11.93;3.07;;;36.80;32.90;;;;;;5444658;26;20504;-72
2024/04/08 12:14:16;;;;;;;9.07;3.43;;;36.60;32.60;;;;;;5474661;26;21381;-71
2024/04/08 12:16:42;;;;;;;10.13;4.07;;;36.50;34.90;;;;;;5414433;26;20214;-72
2024/04/08 12:19:09;;;;;;;9.00;2.93;;;36.00;34.20;;;;;;5444536;26;20265;-70
2024/04/08 12:21:35;;;;;;;8.67;2.97;;;35.70;33.10;;;;;;5444221;26;20831;-73
2024/04/08 12:24:01;;;;;;;8.80;3.20;;;36.00;33.80;;;;;;5474685;26;20456;-72
2024/04/08 12:26:26;;;;;;;7.50;2.70;;;35.80;33.60;;;;;;5443947;26;20443;-69
2024/04/08 12:28:52;;;;;;;8.83;2.80;;;36.30;33.20;;;;;;5476315;26;20218;-71
2024/04/08 12:31:18;;;;;;;16.40;3.67;;;36.50;32.80;;;;;;5475924;26;20225;-70
2024/04/08 12:33:43;;;;;;;10.83;3.40;;;36.80;32.20;;;;;;5444441;26;20459;-71
2024/04/08 12:36:10;;;;;;;11.90;4.20;;;36.10;33.80;;;;;;5444000;26;20241;-70
2024/04/08 12:38:36;;;;;;;13.60;4.33;;;35.40;35.70;;;;;;5444375;26;20229;-70
2024/04/08 12:41:02;;;;;;;13.43;3.70;;;34.70;34.30;;;;;;5472848;26;20505;-71
2024/04/08 12:43:28;;;;;;;8.80;3.73;;;33.30;35.70;;;;;;5414179;26;21275;-70